Time;durP1;ratioP1;P1;durP2;ratioP2;P2;SDS_P1;SDS_P2;PMS_P1;PMS_P2;Temp;Humidity;BMP_temperature;BMP_pressure;BME280_temperature;BME280_humidity;BME280_pressure;Samples;Min_cycle;Max_cycle;Signal;HPM_P1;HPM_P2
2023/01/18 00:01:48;;;;;;;9.63;5.10;;;;;;;;;;5045049;28;20086;-73
2023/01/18 00:04:34;;;;;;;7.15;4.00;;;;;;;;;;5030447;28;20108;-73
2023/01/18 00:07:19;;;;;;;7.05;4.13;;;;;;;;;;5048419;28;20031;-72
2023/01/18 00:10:04;;;;;;;7.90;4.57;;;;;;;;;;5046993;28;20043;-70
2023/01/18 00:12:49;;;;;;;9.13;4.55;;;;;;;;;;5043886;28;20029;-72
2023/01/18 00:15:36;;;;;;;7.65;4.50;;;;;;;;;;5044641;28;20063;-77
2023/01/18 00:18:21;;;;;;;8.07;4.22;;;;;;;;;;5046447;28;20033;-72
2023/01/18 00:21:09;;;;;;;10.05;4.78;;;;;;;;;;5049323;28;20025;-79
2023/01/18 00:23:55;;;;;;;8.27;4.75;;;;;;;;;;5045831;28;20039;-79
2023/01/18 00:26:41;;;;;;;7.68;4.88;;;;;;;;;;5046334;28;20451;-77
2023/01/18 00:29:26;;;;;;;7.95;3.97;;;;;;;;;;5037354;28;20384;-77
2023/01/18 00:32:13;;;;;;;7.90;4.28;;;;;;;;;;5056401;28;20028;-77
2023/01/18 00:34:59;;;;;;;6.57;3.90;;;;;;;;;;5045701;28;20037;-77
2023/01/18 00:37:44;;;;;;;7.60;4.50;;;;;;;;;;5041596;28;20025;-77
2023/01/18 00:40:30;;;;;;;7.40;4.22;;;;;;;;;;5044431;28;20040;-74
2023/01/18 00:46:20;;;;;;;7.65;4.65;;;;;;;;;;5046165;28;20017;-77
2023/01/18 00:49:06;;;;;;;6.55;4.13;;;;;;;;;;5023616;28;20662;-73
2023/01/18 00:51:51;;;;;;;8.57;4.38;;;;;;;;;;5033250;28;20027;-73
2023/01/18 00:54:36;;;;;;;7.60;3.90;;;;;;;;;;5028028;28;20040;-77
2023/01/18 00:57:21;;;;;;;7.65;4.18;;;;;;;;;;5053419;28;20212;-69
2023/01/18 01:00:11;;;;;;;6.82;4.25;;;;;;;;;;5029650;28;20025;-68
2023/01/18 01:02:56;;;;;;;9.90;4.78;;;;;;;;;;5046537;28;20419;-67
2023/01/18 01:08:48;;;;;;;9.07;5.15;;;;;;;;;;5055167;28;20033;-68
2023/01/18 01:11:34;;;;;;;8.13;5.07;;;;;;;;;;5046898;28;20032;-67
2023/01/18 01:26:35;;;;;;;9.73;5.53;;;;;;;;;;5041468;28;20029;-69
2023/01/18 01:29:21;;;;;;;8.32;5.30;;;;;;;;;;5040006;28;20051;-68
2023/01/18 01:32:06;;;;;;;9.40;6.22;;;;;;;;;;5041065;28;20104;-67
2023/01/18 01:34:51;;;;;;;8.80;5.57;;;;;;;;;;5042249;28;20037;-66
2023/01/18 01:37:36;;;;;;;8.55;5.45;;;;;;;;;;5039208;28;20029;-66
2023/01/18 01:40:22;;;;;;;10.27;6.40;;;;;;;;;;5030368;28;20040;-67
2023/01/18 01:43:12;;;;;;;9.18;5.82;;;;;;;;;;5046147;28;20028;-69
2023/01/18 01:45:57;;;;;;;;;;;;;;;;;;5044240;28;20051;-65
2023/01/18 01:48:42;;;;;;;12.25;7.53;;;;;;;;;;5046287;28;20287;-78
2023/01/18 01:51:28;;;;;;;13.15;6.95;;;;;;;;;;5045045;28;20385;-71
2023/01/18 01:54:25;;;;;;;10.32;6.38;;;;;;;;;;5045767;28;20028;-75
2023/01/18 01:57:10;;;;;;;9.98;5.90;;;;;;;;;;5027276;28;20056;-73
2023/01/18 02:00:00;;;;;;;11.30;6.47;;;;;;;;;;5031779;28;20062;-75
2023/01/18 02:02:45;;;;;;;;;;;;;;;;;;5063789;28;20039;-74
2023/01/18 02:05:32;;;;;;;9.73;5.93;;;;;;;;;;5043047;28;19909;-74
2023/01/18 02:08:23;;;;;;;12.13;6.88;;;;;;;;;;5044583;28;20017;-63
2023/01/18 02:11:08;;;;;;;11.20;6.85;;;;;;;;;;5044866;28;20031;-76
2023/01/18 02:13:55;;;;;;;10.73;6.22;;;;;;;;;;5039853;28;20455;-76
2023/01/18 02:16:43;;;;;;;11.70;7.55;;;;;;;;;;5044154;28;20024;-76
2023/01/18 02:19:32;;;;;;;10.93;6.45;;;;;;;;;;5046065;28;20033;-75
2023/01/18 02:22:36;;;;;;;10.00;6.80;;;;;;;;;;5045703;28;20016;-75
2023/01/18 02:26:00;;;;;;;11.00;6.95;;;;;;;;;;5042689;28;20025;-77
2023/01/18 02:28:48;;;;;;;9.68;6.10;;;;;;;;;;4968348;28;20050;-68
2023/01/18 02:31:37;;;;;;;10.13;6.60;;;;;;;;;;4970701;28;20030;-67
2023/01/18 02:34:26;;;;;;;9.47;5.90;;;;;;;;;;5044212;28;20075;-68
2023/01/18 02:37:19;;;;;;;10.50;6.30;;;;;;;;;;5043714;28;20025;-68
2023/01/18 02:40:07;;;;;;;10.40;6.32;;;;;;;;;;5043423;28;20057;-71
2023/01/18 02:49:02;;;;;;;10.82;6.85;;;;;;;;;;5057842;28;20383;-67
2023/01/18 02:51:47;;;;;;;12.55;6.60;;;;;;;;;;5044677;28;20066;-68
2023/01/18 02:54:34;;;;;;;10.30;6.43;;;;;;;;;;5042941;28;20059;-68
2023/01/18 02:57:20;;;;;;;12.07;7.43;;;;;;;;;;5044890;28;20091;-68
2023/01/18 03:00:07;;;;;;;12.68;7.43;;;;;;;;;;5043396;28;20055;-70
2023/01/18 03:02:54;;;;;;;13.02;7.05;;;;;;;;;;5044129;28;20395;-80
2023/01/18 03:05:40;;;;;;;11.15;7.38;;;;;;;;;;5045951;28;20029;-67
2023/01/18 03:08:35;;;;;;;11.45;7.10;;;;;;;;;;5043768;28;20028;-67
2023/01/18 03:11:27;;;;;;;13.07;8.18;;;;;;;;;;5042099;28;20039;-68
2023/01/18 03:14:12;;;;;;;11.90;7.35;;;;;;;;;;5044358;28;20017;-68
2023/01/18 03:17:18;;;;;;;10.95;7.43;;;;;;;;;;5043118;28;20119;-66
2023/01/18 03:25:59;;;;;;;12.68;7.47;;;;;;;;;;5042862;28;20068;-73
2023/01/18 03:34:55;;;;;;;10.68;6.47;;;;;;;;;;5039658;28;20491;-73
2023/01/18 03:37:42;;;;;;;12.98;7.10;;;;;;;;;;5050812;28;20243;-72
2023/01/18 03:40:29;;;;;;;11.18;6.13;;;;;;;;;;5042285;28;20044;-73
2023/01/18 03:43:15;;;;;;;10.65;6.88;;;;;;;;;;5044083;28;20024;-71
2023/01/18 03:46:00;;;;;;;11.45;7.05;;;;;;;;;;5043971;28;20037;-71
2023/01/18 03:48:46;;;;;;;11.55;6.97;;;;;;;;;;5043622;28;20148;-72
2023/01/18 03:51:39;;;;;;;10.90;7.25;;;;;;;;;;5040596;28;20025;-72
2023/01/18 03:54:24;;;;;;;11.52;7.07;;;;;;;;;;5034811;28;20067;-70
2023/01/18 03:57:23;;;;;;;13.60;7.57;;;;;;;;;;5044174;28;20021;-73
2023/01/18 04:00:10;;;;;;;15.75;7.68;;;;;;;;;;5042761;28;20395;-79
2023/01/18 04:02:55;;;;;;;11.25;6.15;;;;;;;;;;5046552;28;20021;-75
2023/01/18 04:05:41;;;;;;;12.43;7.20;;;;;;;;;;5046329;28;20032;-75
2023/01/18 04:08:26;;;;;;;12.00;7.18;;;;;;;;;;5044718;28;20013;-74
2023/01/18 04:11:11;;;;;;;10.38;6.45;;;;;;;;;;5047967;28;20036;-75
2023/01/18 04:13:56;;;;;;;11.60;6.57;;;;;;;;;;5035655;28;20037;-75
2023/01/18 04:16:42;;;;;;;12.85;7.38;;;;;;;;;;5045163;28;20036;-77
2023/01/18 04:19:27;;;;;;;9.45;5.90;;;;;;;;;;5034275;28;20020;-72
2023/01/18 04:22:12;;;;;;;12.75;6.13;;;;;;;;;;5046033;28;20052;-73
2023/01/18 04:24:58;;;;;;;10.80;6.60;;;;;;;;;;5046413;28;20512;-75
2023/01/18 04:27:43;;;;;;;11.23;7.45;;;;;;;;;;5047134;28;20028;-74
2023/01/18 04:30:28;;;;;;;10.40;6.68;;;;;;;;;;5044664;28;20094;-72
2023/01/18 04:33:13;;;;;;;10.73;6.13;;;;;;;;;;5048500;28;20028;-73
2023/01/18 04:35:58;;;;;;;9.50;5.63;;;;;;;;;;5036665;28;20477;-73
2023/01/18 04:38:44;;;;;;;10.35;6.20;;;;;;;;;;5047678;28;20060;-77
2023/01/18 04:41:29;;;;;;;13.00;6.65;;;;;;;;;;5054997;28;20379;-77
2023/01/18 04:44:14;;;;;;;12.10;7.15;;;;;;;;;;5044167;28;20036;-77
2023/01/18 04:46:59;;;;;;;10.88;6.40;;;;;;;;;;5044433;28;20352;-81
2023/01/18 04:49:45;;;;;;;11.32;6.28;;;;;;;;;;5045212;28;20044;-77
2023/01/18 04:52:32;;;;;;;11.70;6.80;;;;;;;;;;5045084;28;20067;-66
2023/01/18 04:55:17;;;;;;;9.73;5.25;;;;;;;;;;5044376;28;20112;-72
2023/01/18 04:58:02;;;;;;;10.48;5.85;;;;;;;;;;5032652;28;20510;-72
2023/01/18 05:00:47;;;;;;;11.93;7.05;;;;;;;;;;5045193;28;20025;-75
2023/01/18 05:03:37;;;;;;;8.88;5.43;;;;;;;;;;5047150;28;20029;-72
2023/01/18 05:06:23;;;;;;;11.43;6.07;;;;;;;;;;5044404;28;20096;-72
2023/01/18 05:09:10;;;;;;;10.68;7.15;;;;;;;;;;5046350;28;20079;-73
2023/01/18 05:11:55;;;;;;;10.05;6.50;;;;;;;;;;5044484;28;20033;-78
2023/01/18 05:14:40;;;;;;;10.68;6.50;;;;;;;;;;5051202;28;20043;-71
2023/01/18 05:17:26;;;;;;;7.97;4.72;;;;;;;;;;5045507;28;20470;-73
2023/01/18 05:20:11;;;;;;;8.40;4.97;;;;;;;;;;5046252;28;20039;-73
2023/01/18 05:22:57;;;;;;;7.70;4.85;;;;;;;;;;5045817;28;20525;-72
2023/01/18 05:25:42;;;;;;;7.88;4.72;;;;;;;;;;5045818;28;20426;-71
2023/01/18 05:28:27;;;;;;;8.35;4.95;;;;;;;;;;5042321;28;20108;-75
2023/01/18 05:31:14;;;;;;;8.73;4.75;;;;;;;;;;5043110;28;20031;-73
2023/01/18 05:33:59;;;;;;;9.05;5.07;;;;;;;;;;5046508;28;20484;-66
2023/01/18 05:36:45;;;;;;;6.50;4.22;;;;;;;;;;5045761;28;20498;-67
2023/01/18 05:39:30;;;;;;;6.22;3.97;;;;;;;;;;5046122;28;20516;-68
2023/01/18 05:42:16;;;;;;;7.03;4.10;;;;;;;;;;5020573;28;20033;-70
2023/01/18 05:45:01;;;;;;;5.13;2.97;;;;;;;;;;5051423;28;20056;-68
2023/01/18 05:47:46;;;;;;;5.30;3.35;;;;;;;;;;5033590;28;21774;-73
2023/01/18 05:50:32;;;;;;;6.32;3.78;;;;;;;;;;5035209;28;20037;-79
2023/01/18 05:53:19;;;;;;;4.80;3.30;;;;;;;;;;5044711;28;20021;-73
2023/01/18 05:56:05;;;;;;;6.05;3.13;;;;;;;;;;5045736;28;20025;-73
2023/01/18 05:58:50;;;;;;;6.03;2.90;;;;;;;;;;5045414;28;20161;-75
2023/01/18 06:01:35;;;;;;;6.43;3.35;;;;;;;;;;5043892;28;20029;-72
2023/01/18 06:04:20;;;;;;;5.80;3.20;;;;;;;;;;5045920;28;20031;-72
2023/01/18 06:07:08;;;;;;;5.35;3.13;;;;;;;;;;5045629;28;20089;-74
2023/01/18 06:09:53;;;;;;;6.18;3.28;;;;;;;;;;5045421;28;20036;-73
2023/01/18 06:12:38;;;;;;;7.97;3.83;;;;;;;;;;5040675;28;20100;-72
2023/01/18 06:15:24;;;;;;;6.00;3.67;;;;;;;;;;5030786;28;20435;-73
2023/01/18 06:18:09;;;;;;;5.63;3.42;;;;;;;;;;5053460;28;20471;-74
2023/01/18 06:20:54;;;;;;;5.50;3.30;;;;;;;;;;5028248;28;20064;-73
2023/01/18 06:23:40;;;;;;;4.07;2.92;;;;;;;;;;5042663;28;20029;-74
2023/01/18 06:26:25;;;;;;;4.47;2.85;;;;;;;;;;5044527;28;20111;-73
2023/01/18 06:29:10;;;;;;;5.25;2.90;;;;;;;;;;5045191;28;20064;-72
2023/01/18 06:31:56;;;;;;;4.65;3.35;;;;;;;;;;5043965;28;20025;-72
2023/01/18 06:34:41;;;;;;;5.60;3.30;;;;;;;;;;5043036;28;20044;-73
2023/01/18 06:37:26;;;;;;;5.47;2.95;;;;;;;;;;5044647;28;20039;-74
2023/01/18 06:40:12;;;;;;;4.00;2.60;;;;;;;;;;5041985;28;20053;-75
2023/01/18 06:42:57;;;;;;;5.63;3.33;;;;;;;;;;5043832;28;20028;-77
2023/01/18 06:45:42;;;;;;;4.28;2.60;;;;;;;;;;5034806;28;20426;-69
2023/01/18 06:48:28;;;;;;;4.93;3.10;;;;;;;;;;5045453;28;20039;-68
2023/01/18 06:51:13;;;;;;;5.43;3.22;;;;;;;;;;5047245;28;20495;-70
2023/01/18 06:53:59;;;;;;;5.20;3.03;;;;;;;;;;5043070;28;20009;-68
2023/01/18 06:56:44;;;;;;;5.40;3.30;;;;;;;;;;5042743;28;20017;-69
2023/01/18 06:59:29;;;;;;;7.10;3.40;;;;;;;;;;5043276;28;20426;-67
2023/01/18 07:02:15;;;;;;;7.00;3.90;;;;;;;;;;5040226;28;20063;-68
2023/01/18 07:05:01;;;;;;;6.13;3.47;;;;;;;;;;5042707;28;20531;-70
2023/01/18 07:07:46;;;;;;;8.82;4.65;;;;;;;;;;5039368;28;20475;-67
2023/01/18 07:10:31;;;;;;;6.57;4.20;;;;;;;;;;5037795;28;20033;-67
2023/01/18 07:13:17;;;;;;;5.22;3.47;;;;;;;;;;5044102;28;20480;-66
2023/01/18 07:16:02;;;;;;;8.23;3.63;;;;;;;;;;5038576;28;20041;-68
2023/01/18 07:18:48;;;;;;;9.43;4.25;;;;;;;;;;5044370;28;20487;-68
2023/01/18 07:21:33;;;;;;;6.88;3.65;;;;;;;;;;5051341;28;20063;-73
2023/01/18 07:24:19;;;;;;;7.60;4.38;;;;;;;;;;5039097;28;20025;-66
2023/01/18 07:27:04;;;;;;;6.13;3.80;;;;;;;;;;5043397;28;20036;-67
2023/01/18 07:29:49;;;;;;;6.05;3.45;;;;;;;;;;5040845;28;20124;-69
2023/01/18 07:32:34;;;;;;;10.45;4.88;;;;;;;;;;5053576;28;20017;-70
2023/01/18 07:35:23;;;;;;;7.10;3.80;;;;;;;;;;5036191;28;20036;-70
2023/01/18 07:38:08;;;;;;;9.60;4.72;;;;;;;;;;5030292;28;20056;-66
2023/01/18 07:41:01;;;;;;;6.38;4.03;;;;;;;;;;5032125;28;20032;-72
2023/01/18 07:43:46;;;;;;;8.63;4.50;;;;;;;;;;5030475;28;20525;-70
2023/01/18 07:46:31;;;;;;;8.02;4.50;;;;;;;;;;5060320;28;20017;-67
2023/01/18 07:49:16;;;;;;;6.63;3.67;;;;;;;;;;5044672;28;20029;-67
2023/01/18 07:52:02;;;;;;;5.85;3.67;;;;;;;;;;5042261;28;20025;-65
2023/01/18 07:54:47;;;;;;;6.10;3.80;;;;;;;;;;5051620;28;20033;-68
2023/01/18 07:57:32;;;;;;;6.07;3.28;;;;;;;;;;5045346;28;20017;-77
2023/01/18 08:00:18;;;;;;;6.45;3.58;;;;;;;;;;5045832;28;20108;-72
2023/01/18 08:03:03;;;;;;;7.10;3.80;;;;;;;;;;5045677;28;20021;-76
2023/01/18 08:05:48;;;;;;;4.50;3.08;;;;;;;;;;5045010;28;20472;-75
2023/01/18 08:08:34;;;;;;;5.75;3.38;;;;;;;;;;5040472;28;20519;-73
2023/01/18 08:11:19;;;;;;;5.07;3.38;;;;;;;;;;5044597;28;20029;-77
2023/01/18 08:14:04;;;;;;;8.55;4.22;;;;;;;;;;5044500;28;20028;-72
2023/01/18 08:16:50;;;;;;;6.05;3.72;;;;;;;;;;5043885;28;20504;-67
2023/01/18 08:19:35;;;;;;;7.38;4.38;;;;;;;;;;5044596;28;20047;-70
2023/01/18 08:22:20;;;;;;;7.35;4.13;;;;;;;;;;5042662;28;20071;-70
2023/01/18 08:25:06;;;;;;;6.82;3.90;;;;;;;;;;5050078;28;20025;-71
2023/01/18 08:27:51;;;;;;;7.03;4.32;;;;;;;;;;5045880;28;20678;-66
2023/01/18 08:30:38;;;;;;;7.82;4.30;;;;;;;;;;5043076;28;20037;-67
2023/01/18 08:33:23;;;;;;;9.57;4.53;;;;;;;;;;5038534;28;20540;-67
2023/01/18 08:36:10;;;;;;;7.35;4.03;;;;;;;;;;5044604;28;20079;-72
2023/01/18 08:38:55;;;;;;;7.60;3.70;;;;;;;;;;5044494;28;20053;-74
2023/01/18 08:41:41;;;;;;;6.50;3.95;;;;;;;;;;5041527;28;20047;-76
2023/01/18 08:44:27;;;;;;;7.75;4.32;;;;;;;;;;5045217;28;20025;-74
2023/01/18 08:47:14;;;;;;;10.38;4.70;;;;;;;;;;5042353;28;20470;-74
2023/01/18 08:49:59;;;;;;;6.35;4.35;;;;;;;;;;5036354;28;20068;-76
2023/01/18 08:52:44;;;;;;;8.00;4.90;;;;;;;;;;5025613;28;20112;-77
2023/01/18 08:55:30;;;;;;;6.35;4.68;;;;;;;;;;5040710;28;20472;-73
2023/01/18 08:58:15;;;;;;;8.55;3.85;;;;;;;;;;5037456;28;20036;-72
2023/01/18 09:01:07;;;;;;;8.27;4.72;;;;;;;;;;5044168;28;20033;-75
2023/01/18 09:03:54;;;;;;;8.57;4.70;;;;;;;;;;5027929;28;20479;-78
2023/01/18 09:06:39;;;;;;;8.75;5.00;;;;;;;;;;5042997;28;20389;-78
2023/01/18 09:09:24;;;;;;;9.20;4.75;;;;;;;;;;5041423;28;20845;-75
2023/01/18 09:12:12;;;;;;;6.55;4.38;;;;;;;;;;5042484;28;20146;-68
2023/01/18 09:14:58;;;;;;;7.20;3.70;;;;;;;;;;5041378;28;20025;-67
2023/01/18 09:17:43;;;;;;;6.75;3.95;;;;;;;;;;5045231;28;20480;-67
2023/01/18 09:20:29;;;;;;;6.50;3.78;;;;;;;;;;5044564;28;20894;-65
2023/01/18 09:23:14;;;;;;;7.32;3.63;;;;;;;;;;5043924;28;20032;-69
2023/01/18 09:26:03;;;;;;;5.38;3.60;;;;;;;;;;5041949;28;20037;-66
2023/01/18 09:28:51;;;;;;;5.55;3.13;;;;;;;;;;5047937;28;20040;-72
2023/01/18 09:31:36;;;;;;;8.95;4.78;;;;;;;;;;5040091;28;20044;-74
2023/01/18 09:34:22;;;;;;;7.38;3.20;;;;;;;;;;5044155;28;20044;-68
2023/01/18 09:37:07;;;;;;;5.25;3.25;;;;;;;;;;5023069;28;20032;-70
2023/01/18 09:39:53;;;;;;;5.90;3.42;;;;;;;;;;5029773;28;20058;-69
2023/01/18 09:42:41;;;;;;;7.05;3.60;;;;;;;;;;5040901;28;20036;-69
2023/01/18 09:45:28;;;;;;;7.32;3.22;;;;;;;;;;5043217;28;20029;-70
2023/01/18 09:48:18;;;;;;;7.13;4.22;;;;;;;;;;5039535;28;20047;-69
2023/01/18 09:51:24;;;;;;;7.40;3.53;;;;;;;;;;5054419;28;20082;-73
2023/01/18 09:54:15;;;;;;;8.13;4.43;;;;;;;;;;5040163;28;20032;-73
2023/01/18 09:57:11;;;;;;;7.35;3.70;;;;;;;;;;5040801;28;20040;-75
2023/01/18 09:59:57;;;;;;;6.45;3.95;;;;;;;;;;5042982;28;20100;-77
2023/01/18 10:02:44;;;;;;;6.47;3.47;;;;;;;;;;5045483;28;20496;-75
2023/01/18 10:05:32;;;;;;;5.65;3.33;;;;;;;;;;5040781;28;20037;-70
2023/01/18 10:08:19;;;;;;;7.18;3.63;;;;;;;;;;5042617;28;20071;-71
2023/01/18 10:11:10;;;;;;;5.80;3.22;;;;;;;;;;5051400;28;20033;-71
2023/01/18 10:13:57;;;;;;;7.65;4.03;;;;;;;;;;5040360;28;20370;-72
2023/01/18 10:16:53;;;;;;;7.35;3.80;;;;;;;;;;5041348;28;20053;-69
2023/01/18 10:19:39;;;;;;;5.85;3.53;;;;;;;;;;5056968;28;20033;-72
2023/01/18 10:22:27;;;;;;;4.18;2.58;;;;;;;;;;5041030;28;20033;-69
2023/01/18 10:25:19;;;;;;;10.60;3.45;;;;;;;;;;5038745;28;20043;-72
2023/01/18 10:28:04;;;;;;;8.15;3.78;;;;;;;;;;5042133;28;20028;-79
2023/01/18 10:31:18;;;;;;;7.65;4.03;;;;;;;;;;5037386;28;20041;-81
2023/01/18 10:34:11;;;;;;;7.88;3.92;;;;;;;;;;5029638;28;20384;-80
2023/01/18 10:37:00;;;;;;;5.72;3.17;;;;;;;;;;5041573;28;20472;-79
2023/01/18 10:39:49;;;;;;;7.28;3.25;;;;;;;;;;5041280;28;20049;-78
2023/01/18 10:42:44;;;;;;;8.20;3.72;;;;;;;;;;5040938;28;20029;-72
2023/01/18 10:45:31;;;;;;;6.75;3.50;;;;;;;;;;5042583;28;20493;-75
2023/01/18 10:48:17;;;;;;;6.68;3.72;;;;;;;;;;5042233;28;20075;-70
2023/01/18 10:51:04;;;;;;;6.68;3.80;;;;;;;;;;5024467;28;20051;-69
2023/01/18 10:53:50;;;;;;;6.75;3.80;;;;;;;;;;5041420;28;20290;-67
2023/01/18 10:56:35;;;;;;;5.50;3.08;;;;;;;;;;5040871;28;20021;-72
2023/01/18 10:59:27;;;;;;;6.05;3.53;;;;;;;;;;5052729;28;20058;-69
2023/01/18 11:02:22;;;;;;;7.28;4.15;;;;;;;;;;5038523;28;20155;-72
2023/01/18 11:05:22;;;;;;;7.30;4.20;;;;;;;;;;5061283;28;20036;-75
2023/01/18 11:08:24;;;;;;;8.70;4.90;;;;;;;;;;5054111;28;20029;-76
2023/01/18 11:11:18;;;;;;;6.13;3.63;;;;;;;;;;5053895;28;20041;-75
2023/01/18 11:14:20;;;;;;;6.57;3.83;;;;;;;;;;5041464;28;20021;-74
2023/01/18 11:17:12;;;;;;;9.93;4.25;;;;;;;;;;5042544;28;20669;-75
2023/01/18 11:20:04;;;;;;;10.70;4.78;;;;;;;;;;5038643;28;20028;-81
2023/01/18 11:23:03;;;;;;;9.07;4.32;;;;;;;;;;5052802;28;20463;-77
2023/01/18 11:25:54;;;;;;;6.78;3.75;;;;;;;;;;5040862;28;20465;-83
2023/01/18 11:29:01;;;;;;;8.23;4.00;;;;;;;;;;5040859;28;20352;-77
2023/01/18 11:31:48;;;;;;;8.77;5.00;;;;;;;;;;5057934;28;20539;-77
2023/01/18 11:34:33;;;;;;;9.10;4.28;;;;;;;;;;5045124;28;20029;-84
2023/01/18 11:37:29;;;;;;;8.00;4.32;;;;;;;;;;5040616;28;20308;-82
2023/01/18 11:40:26;;;;;;;6.90;3.92;;;;;;;;;;5030545;28;20467;-68
2023/01/18 11:43:17;;;;;;;9.75;4.60;;;;;;;;;;5044669;28;20029;-77
2023/01/18 11:46:05;;;;;;;7.07;3.70;;;;;;;;;;5042135;28;20040;-74
2023/01/18 11:49:00;;;;;;;8.45;4.15;;;;;;;;;;5050469;28;20640;-85
2023/01/18 11:51:48;;;;;;;7.53;3.83;;;;;;;;;;5031349;28;20533;-81
2023/01/18 11:54:40;;;;;;;7.38;4.55;;;;;;;;;;5042051;28;20021;-83
2023/01/18 11:57:27;;;;;;;8.43;3.45;;;;;;;;;;5040420;28;20029;-79
2023/01/18 12:00:13;;;;;;;7.00;3.63;;;;;;;;;;5042506;28;20499;-74
2023/01/18 12:03:10;;;;;;;5.78;3.53;;;;;;;;;;5040726;28;20036;-74
2023/01/18 12:06:05;;;;;;;6.35;3.97;;;;;;;;;;5054546;28;20104;-75
2023/01/18 12:09:02;;;;;;;6.43;3.25;;;;;;;;;;5059512;28;20037;-74
2023/01/18 12:11:54;;;;;;;5.15;3.00;;;;;;;;;;5038011;28;20056;-74
2023/01/18 12:14:53;;;;;;;9.13;3.70;;;;;;;;;;5054007;28;20489;-69
2023/01/18 12:17:57;;;;;;;8.70;3.25;;;;;;;;;;5036541;28;20029;-79
2023/01/18 12:20:54;;;;;;;7.43;4.15;;;;;;;;;;5041441;28;20025;-78
2023/01/18 12:23:42;;;;;;;7.25;3.22;;;;;;;;;;5041622;28;20036;-78
2023/01/18 12:26:41;;;;;;;8.75;4.00;;;;;;;;;;5047633;28;20039;-80
2023/01/18 12:29:32;;;;;;;6.15;3.55;;;;;;;;;;5044152;28;20037;-81
2023/01/18 12:32:44;;;;;;;9.13;3.63;;;;;;;;;;5042445;28;20021;-81
2023/01/18 12:35:42;;;;;;;5.93;3.58;;;;;;;;;;5039634;28;20116;-76
2023/01/18 12:38:30;;;;;;;9.82;4.43;;;;;;;;;;5043837;28;20470;-76
2023/01/18 12:41:24;;;;;;;9.82;3.65;;;;;;;;;;5054496;28;20017;-82
2023/01/18 12:44:21;;;;;;;5.45;2.70;;;;;;;;;;5044994;28;20041;-76
2023/01/18 12:47:08;;;;;;;7.80;3.60;;;;;;;;;;5034283;28;20127;-78
2023/01/18 12:49:56;;;;;;;7.22;3.35;;;;;;;;;;5040145;28;20041;-81
2023/01/18 12:52:44;;;;;;;8.63;3.20;;;;;;;;;;5042197;28;20033;-74
2023/01/18 12:55:30;;;;;;;8.87;3.47;;;;;;;;;;5041158;28;20024;-68
2023/01/18 12:58:23;;;;;;;9.25;3.45;;;;;;;;;;5043187;28;20021;-67
2023/01/18 13:01:13;;;;;;;8.23;3.63;;;;;;;;;;5039717;28;20035;-71
2023/01/18 13:04:04;;;;;;;6.90;2.90;;;;;;;;;;5053903;28;20024;-65
2023/01/18 13:06:51;;;;;;;4.57;2.53;;;;;;;;;;5043563;28;20338;-68
2023/01/18 13:09:39;;;;;;;8.40;3.15;;;;;;;;;;5040314;28;20064;-70
2023/01/18 13:12:24;;;;;;;8.38;2.95;;;;;;;;;;5048049;28;20017;-74
2023/01/18 13:15:33;;;;;;;7.40;3.75;;;;;;;;;;5056047;28;20486;-75
2023/01/18 13:18:22;;;;;;;7.57;3.78;;;;;;;;;;5049966;28;20017;-83
2023/01/18 13:21:26;;;;;;;8.27;2.85;;;;;;;;;;5031068;28;20055;-79
2023/01/18 13:24:11;;;;;;;8.38;3.70;;;;;;;;;;5044062;28;20079;-75
2023/01/18 13:27:07;;;;;;;4.88;2.78;;;;;;;;;;5043687;28;20036;-74
2023/01/18 13:29:52;;;;;;;7.85;3.42;;;;;;;;;;5040746;28;20479;-77
2023/01/18 13:32:37;;;;;;;7.65;3.47;;;;;;;;;;5039264;28;20104;-80
2023/01/18 13:35:31;;;;;;;4.68;2.85;;;;;;;;;;5042191;28;20064;-79
2023/01/18 13:38:18;;;;;;;5.03;2.70;;;;;;;;;;5040852;28;20055;-77
2023/01/18 13:41:08;;;;;;;8.20;3.05;;;;;;;;;;5039682;28;20044;-81
2023/01/18 13:44:02;;;;;;;5.10;2.55;;;;;;;;;;5048801;28;20052;-76
2023/01/18 13:46:47;;;;;;;6.13;3.25;;;;;;;;;;5036029;28;20032;-77
2023/01/18 13:49:36;;;;;;;5.00;2.38;;;;;;;;;;5043570;28;20032;-69
2023/01/18 13:52:28;;;;;;;8.20;2.83;;;;;;;;;;5045113;28;20737;-71
2023/01/18 13:55:32;;;;;;;6.30;3.35;;;;;;;;;;5044969;28;20036;-75
2023/01/18 13:58:31;;;;;;;6.78;2.97;;;;;;;;;;5042799;28;20037;-76
2023/01/18 14:01:21;;;;;;;5.43;3.00;;;;;;;;;;5045372;28;20557;-76
2023/01/18 14:04:22;;;;;;;8.55;3.17;;;;;;;;;;5031668;28;20504;-75
2023/01/18 14:07:16;;;;;;;6.03;3.03;;;;;;;;;;5042589;28;20029;-74
2023/01/18 14:10:06;;;;;;;6.15;2.97;;;;;;;;;;5041562;28;20079;-72
2023/01/18 14:12:53;;;;;;;6.00;3.05;;;;;;;;;;5043663;28;20099;-68
2023/01/18 14:15:42;;;;;;;5.65;3.05;;;;;;;;;;5041141;28;20499;-67
2023/01/18 14:18:28;;;;;;;6.32;2.95;;;;;;;;;;5059737;28;20424;-68
2023/01/18 14:21:33;;;;;;;5.65;3.15;;;;;;;;;;5056226;28;20021;-69
2023/01/18 14:24:21;;;;;;;5.85;2.85;;;;;;;;;;5040597;28;20021;-70
2023/01/18 14:27:08;;;;;;;7.55;3.08;;;;;;;;;;5040196;28;20025;-67
2023/01/18 14:30:01;;;;;;;7.18;4.32;;;;;;;;;;5026608;28;20037;-69
2023/01/18 14:32:54;;;;;;;5.63;2.92;;;;;;;;;;5051315;28;20020;-69
2023/01/18 14:35:47;;;;;;;4.85;2.80;;;;;;;;;;5042878;28;20021;-67
2023/01/18 14:38:32;;;;;;;9.15;3.30;;;;;;;;;;5054908;28;20058;-68
2023/01/18 14:41:18;;;;;;;8.70;3.58;;;;;;;;;;5041947;28;20483;-68
2023/01/18 14:44:04;;;;;;;7.68;2.63;;;;;;;;;;5041934;28;20035;-72
2023/01/18 14:46:51;;;;;;;7.60;3.28;;;;;;;;;;5041303;28;20033;-71
2023/01/18 14:49:37;;;;;;;5.95;3.58;;;;;;;;;;5047231;28;20037;-75
2023/01/18 14:52:25;;;;;;;5.18;2.60;;;;;;;;;;5041693;28;20017;-75
2023/01/18 14:55:29;;;;;;;7.60;2.70;;;;;;;;;;5053322;28;20072;-72
2023/01/18 14:58:15;;;;;;;5.22;2.70;;;;;;;;;;5050141;28;20116;-74
2023/01/18 15:01:01;;;;;;;6.80;3.47;;;;;;;;;;5027108;28;20051;-73
2023/01/18 15:03:51;;;;;;;6.75;2.90;;;;;;;;;;5039499;28;20040;-73
2023/01/18 15:06:45;;;;;;;8.05;3.47;;;;;;;;;;5039013;28;20016;-73
2023/01/18 15:09:31;;;;;;;6.93;3.45;;;;;;;;;;5040305;28;20052;-73
2023/01/18 15:12:20;;;;;;;9.27;3.08;;;;;;;;;;5025596;28;20036;-76
2023/01/18 15:15:07;;;;;;;6.88;3.17;;;;;;;;;;5042220;28;20108;-72
2023/01/18 15:17:54;;;;;;;6.70;3.65;;;;;;;;;;5050396;28;20069;-72
2023/01/18 15:20:49;;;;;;;9.23;3.13;;;;;;;;;;5044560;28;20029;-73
2023/01/18 15:23:35;;;;;;;9.50;3.30;;;;;;;;;;5054549;28;20400;-71
2023/01/18 15:26:39;;;;;;;9.05;3.60;;;;;;;;;;5025752;28;20089;-70
2023/01/18 15:29:25;;;;;;;5.78;3.28;;;;;;;;;;5058413;28;20032;-74
2023/01/18 15:32:12;;;;;;;13.65;3.40;;;;;;;;;;5042528;28;20072;-73
2023/01/18 15:34:59;;;;;;;9.00;2.45;;;;;;;;;;5039937;28;20434;-71
2023/01/18 15:37:44;;;;;;;8.95;3.70;;;;;;;;;;5038269;28;20506;-72
2023/01/18 15:40:29;;;;;;;6.68;3.00;;;;;;;;;;5040954;28;20045;-72
2023/01/18 15:43:23;;;;;;;10.77;3.75;;;;;;;;;;5036429;28;20035;-72
2023/01/18 15:46:10;;;;;;;8.98;3.53;;;;;;;;;;5042388;28;20056;-75
2023/01/18 15:48:56;;;;;;;7.03;2.65;;;;;;;;;;5042406;28;20041;-72
2023/01/18 15:51:51;;;;;;;8.02;3.58;;;;;;;;;;5030452;28;20025;-71
2023/01/18 15:54:37;;;;;;;7.97;2.83;;;;;;;;;;5033974;28;20548;-72
2023/01/18 15:57:22;;;;;;;11.60;4.30;;;;;;;;;;5027884;28;20025;-73
2023/01/18 16:00:23;;;;;;;5.10;2.42;;;;;;;;;;5042161;28;20249;-75
2023/01/18 16:03:47;;;;;;;4.90;2.70;;;;;;;;;;5043624;28;20039;-74
2023/01/18 16:06:33;;;;;;;7.78;2.70;;;;;;;;;;5003620;28;20116;-76
2023/01/18 16:09:20;;;;;;;8.30;4.13;;;;;;;;;;5026546;28;20089;-74
2023/01/18 16:12:06;;;;;;;7.38;3.00;;;;;;;;;;5041101;28;20476;-78
2023/01/18 16:14:51;;;;;;;5.75;3.30;;;;;;;;;;5033551;28;20124;-69
2023/01/18 16:17:37;;;;;;;6.65;3.72;;;;;;;;;;5043778;28;20330;-69
2023/01/18 16:20:22;;;;;;;8.05;3.05;;;;;;;;;;5030730;28;20024;-71
2023/01/18 16:23:09;;;;;;;3.78;2.20;;;;;;;;;;5027146;28;20116;-69
2023/01/18 16:26:01;;;;;;;5.78;2.88;;;;;;;;;;5054196;28;20116;-70
2023/01/18 16:28:47;;;;;;;10.00;3.47;;;;;;;;;;5045565;28;20116;-70
2023/01/18 16:31:33;;;;;;;6.25;3.17;;;;;;;;;;5041176;28;20052;-70
2023/01/18 16:34:25;;;;;;;9.38;3.70;;;;;;;;;;5054684;28;20037;-79
2023/01/18 16:37:10;;;;;;;5.35;2.92;;;;;;;;;;5041000;28;20023;-70
2023/01/18 16:39:55;;;;;;;7.35;3.20;;;;;;;;;;5045996;28;20045;-70
2023/01/18 16:42:54;;;;;;;5.32;3.35;;;;;;;;;;5047028;28;20037;-70
2023/01/18 16:45:39;;;;;;;6.07;3.45;;;;;;;;;;5058447;28;20183;-71
2023/01/18 16:48:25;;;;;;;6.40;3.15;;;;;;;;;;5042941;28;20443;-72
2023/01/18 16:51:16;;;;;;;9.85;3.20;;;;;;;;;;5047798;28;20032;-87
2023/01/18 16:54:01;;;;;;;6.32;3.20;;;;;;;;;;5029109;28;20120;-74
2023/01/18 16:56:47;;;;;;;5.70;3.33;;;;;;;;;;5055151;28;20342;-75
2023/01/18 16:59:32;;;;;;;8.02;3.42;;;;;;;;;;5046572;28;20400;-74
2023/01/18 17:02:17;;;;;;;13.25;3.80;;;;;;;;;;5054386;28;20044;-72
2023/01/18 17:05:02;;;;;;;11.63;3.15;;;;;;;;;;5045247;28;20194;-72
2023/01/18 17:07:49;;;;;;;7.63;3.50;;;;;;;;;;5032312;28;20455;-75
2023/01/18 17:10:36;;;;;;;6.70;3.38;;;;;;;;;;5026239;28;20028;-69
2023/01/18 17:13:22;;;;;;;9.05;2.92;;;;;;;;;;5050116;28;20028;-90
2023/01/18 17:16:13;;;;;;;7.78;3.60;;;;;;;;;;5040692;28;20029;-90
2023/01/18 17:18:59;;;;;;;8.63;4.05;;;;;;;;;;5043191;28;20095;-90
2023/01/18 17:21:45;;;;;;;10.05;3.70;;;;;;;;;;5037416;28;20306;-90
2023/01/18 17:24:30;;;;;;;7.55;3.47;;;;;;;;;;5049949;28;20053;-91